createdAt,value
2018-10-11T00:02:22.767Z,8.30
2018-10-11T00:04:54.605Z,7.97
2018-10-11T00:07:26.516Z,7.77
2018-10-11T00:09:57.896Z,8.20
2018-10-11T00:12:29.556Z,7.40
2018-10-11T00:15:00.859Z,7.80
2018-10-11T00:17:32.351Z,8.23
2018-10-11T00:20:03.928Z,7.67
2018-10-11T00:22:36.747Z,7.70
2018-10-11T00:25:08.091Z,8.23
2018-10-11T00:27:40.682Z,7.77
2018-10-11T00:30:12.638Z,7.33
2018-10-11T00:32:44.236Z,8.10
2018-10-11T00:35:20.895Z,7.33
2018-10-11T00:37:52.782Z,7.53
2018-10-11T00:40:24.791Z,7.77
2018-10-11T00:42:56.670Z,7.63
2018-10-11T00:45:28.807Z,7.40
2018-10-11T00:48:00.797Z,7.87
2018-10-11T00:50:34.247Z,8.10
2018-10-11T00:53:05.719Z,7.93
2018-10-11T00:55:37.203Z,8.33
2018-10-11T00:58:09.200Z,7.90
2018-10-11T01:00:40.650Z,8.03
2018-10-11T01:03:11.974Z,7.70
2018-10-11T01:08:14.201Z,8.23
2018-10-11T01:10:45.698Z,7.70
2018-10-11T01:13:16.968Z,7.80
2018-10-11T01:18:18.906Z,8.10
2018-10-11T01:20:50.326Z,8.23
2018-10-11T01:23:21.758Z,7.90
2018-10-11T01:25:53.394Z,8.00
2018-10-11T01:28:25.203Z,7.77
2018-10-11T01:31:01.730Z,8.07
2018-10-11T01:33:33.313Z,8.00
2018-10-11T01:36:04.813Z,7.87
2018-10-11T01:38:36.195Z,7.70
2018-10-11T01:41:07.688Z,8.03
2018-10-11T01:43:38.687Z,7.83
2018-10-11T01:46:09.677Z,8.13
2018-10-11T01:48:41.200Z,7.87
2018-10-11T01:51:12.683Z,8.37
2018-10-11T01:53:43.992Z,7.90
2018-10-11T01:56:15.489Z,7.83
2018-10-11T01:58:46.870Z,8.03
2018-10-11T02:01:18.333Z,7.70
2018-10-11T02:03:49.883Z,7.53
2018-10-11T02:06:21.327Z,7.77
2018-10-11T02:08:52.746Z,7.83
2018-10-11T02:11:24.293Z,7.80
2018-10-11T02:13:55.708Z,7.73
2018-10-11T02:16:26.990Z,7.60
2018-10-11T02:18:58.359Z,7.77
2018-10-11T02:21:29.737Z,7.97
2018-10-11T02:24:01.203Z,7.90
2018-10-11T02:26:32.669Z,8.60
2018-10-11T02:29:03.992Z,8.07
2018-10-11T02:31:35.482Z,7.70
2018-10-11T02:34:07.055Z,8.10
2018-10-11T02:36:38.624Z,8.43
2018-10-11T02:39:11.740Z,8.30
2018-10-11T02:41:43.308Z,7.90
2018-10-11T02:44:15.205Z,7.87
2018-10-11T02:46:46.688Z,7.90
2018-10-11T02:49:18.195Z,8.13
2018-10-11T02:51:49.611Z,7.87
2018-10-11T02:54:21.190Z,8.77
2018-10-11T02:56:58.187Z,8.63
2018-10-11T02:59:38.310Z,8.00
2018-10-11T03:02:14.725Z,8.00
2018-10-11T03:04:48.497Z,8.17
2018-10-11T03:07:20.785Z,8.40
2018-10-11T03:09:52.344Z,8.53
2018-10-11T03:12:26.673Z,8.20
2018-10-11T03:14:57.891Z,8.40
2018-10-11T03:17:30.491Z,7.93
2018-10-11T03:20:01.715Z,7.83
2018-10-11T03:22:33.195Z,8.27
2018-10-11T03:25:04.676Z,7.70
2018-10-11T03:27:36.594Z,8.13
2018-10-11T03:30:08.346Z,8.00
2018-10-11T03:32:39.719Z,8.07
2018-10-11T03:35:11.319Z,8.13
2018-10-11T03:37:44.626Z,8.27
2018-10-11T03:40:15.852Z,7.90
2018-10-11T03:42:47.326Z,8.17
2018-10-11T03:45:18.759Z,8.13
2018-10-11T03:47:50.201Z,8.57
2018-10-11T03:50:21.694Z,8.53
2018-10-11T03:52:53.187Z,7.80
2018-10-11T03:55:24.592Z,8.10
2018-10-11T03:57:56.973Z,8.43
2018-10-11T04:05:29.811Z,8.63
2018-10-11T04:08:01.202Z,8.80
2018-10-11T04:10:32.666Z,8.77
2018-10-11T04:13:04.041Z,7.83
2018-10-11T04:15:35.743Z,8.60
2018-10-11T04:18:07.184Z,8.33
2018-10-11T04:20:38.723Z,8.10
2018-10-11T04:23:13.661Z,8.73
2018-10-11T04:25:44.605Z,9.57
2018-10-11T04:28:15.967Z,8.70
2018-10-11T04:33:17.841Z,9.20
2018-10-11T04:35:49.249Z,9.20
2018-10-11T04:38:20.701Z,8.40
2018-10-11T04:40:52.059Z,8.73
2018-10-11T04:43:24.187Z,8.70
2018-10-11T04:45:55.652Z,9.07
2018-10-11T04:48:27.189Z,8.73
2018-10-11T04:50:58.658Z,9.17
2018-10-11T04:53:30.196Z,8.53
2018-10-11T04:56:01.688Z,9.20
2018-10-11T04:58:32.950Z,8.40
2018-10-11T05:03:34.861Z,9.27
2018-10-11T05:06:06.352Z,9.47
2018-10-11T05:08:37.988Z,9.00
2018-10-11T05:11:09.753Z,9.30
2018-10-11T05:13:47.803Z,9.97
2018-10-11T05:16:19.412Z,9.20
2018-10-11T05:19:04.652Z,9.43
2018-10-11T05:21:36.420Z,9.40
2018-10-11T05:24:07.870Z,9.10
2018-10-11T05:26:39.327Z,9.30
2018-10-11T05:29:10.714Z,9.07
2018-10-11T05:31:42.209Z,9.53
2018-10-11T05:34:13.724Z,9.40
2018-10-11T05:36:45.331Z,9.30
2018-10-11T05:39:16.747Z,9.37
2018-10-11T05:41:48.192Z,8.90
2018-10-11T05:44:19.695Z,9.23
2018-10-11T05:46:51.194Z,9.53
2018-10-11T05:49:22.723Z,9.07
2018-10-11T05:51:54.314Z,9.20
2018-10-11T05:54:25.759Z,8.97
2018-10-11T05:56:57.359Z,8.90
2018-10-11T05:59:28.819Z,8.77
2018-10-11T06:02:00.207Z,9.17
2018-10-11T06:04:31.728Z,9.40
2018-10-11T06:07:03.303Z,8.83
2018-10-11T06:09:34.728Z,9.37
2018-10-11T06:12:06.213Z,9.60
2018-10-11T06:14:37.683Z,9.10
2018-10-11T06:17:09.194Z,9.07
2018-10-11T06:19:40.644Z,8.93
2018-10-11T06:22:12.193Z,9.33
2018-10-11T06:24:43.713Z,9.40
2018-10-11T06:27:15.191Z,8.63
2018-10-11T06:29:46.672Z,8.93
2018-10-11T06:32:18.043Z,8.87
2018-10-11T06:34:49.621Z,9.03
2018-10-11T06:37:20.974Z,9.37
2018-10-11T06:39:52.467Z,8.90
2018-10-11T06:42:23.739Z,9.17
2018-10-11T06:44:55.741Z,8.70
2018-10-11T06:47:27.333Z,8.70
2018-10-11T06:49:58.560Z,8.63
2018-10-11T06:52:29.581Z,9.40
2018-10-11T06:55:00.610Z,8.57
2018-10-11T06:57:31.613Z,8.80
2018-10-11T07:00:02.786Z,9.53
2018-10-11T07:02:33.788Z,9.10
2018-10-11T07:05:04.797Z,8.97
2018-10-11T07:07:35.785Z,9.27
2018-10-11T07:10:07.348Z,9.23
2018-10-11T07:12:38.779Z,8.50
2018-10-11T07:15:10.200Z,8.60
2018-10-11T07:17:41.621Z,8.87
2018-10-11T07:20:13.196Z,9.03
2018-10-11T07:22:44.664Z,9.30
2018-10-11T07:25:16.204Z,8.50
2018-10-11T07:27:47.650Z,8.50
2018-10-11T07:30:19.757Z,9.33
2018-10-11T07:32:51.331Z,9.07
2018-10-11T07:35:22.863Z,8.97
2018-10-11T07:37:54.202Z,9.10
2018-10-11T07:40:25.745Z,8.67
2018-10-11T07:42:57.206Z,9.03
2018-10-11T07:45:28.656Z,8.60
2018-10-11T07:48:01.248Z,8.83
2018-10-11T07:50:32.714Z,9.10
2018-10-11T07:53:03.991Z,9.00
2018-10-11T07:58:05.846Z,9.07
2018-10-11T08:00:37.290Z,9.07
2018-10-11T08:03:08.846Z,8.60
2018-10-11T08:05:40.207Z,9.03
2018-10-11T08:08:11.691Z,8.87
2018-10-11T08:10:43.096Z,8.67
2018-10-11T08:13:14.633Z,8.70
2018-10-11T08:15:45.896Z,9.30
2018-10-11T08:18:17.347Z,8.37
2018-10-11T08:20:48.743Z,8.60
2018-10-11T08:23:20.212Z,8.90
2018-10-11T08:25:52.041Z,8.50
2018-10-11T08:28:25.499Z,8.70
2018-10-11T08:30:56.851Z,8.60
2018-10-11T08:33:28.350Z,8.37
2018-10-11T08:36:00.903Z,8.83
2018-10-11T08:38:32.489Z,8.10
2018-10-11T08:41:03.798Z,8.33
2018-10-11T08:43:36.429Z,8.60
2018-10-11T08:46:08.370Z,8.83
2018-10-11T08:48:39.763Z,8.00
2018-10-11T08:51:10.773Z,8.07
2018-10-11T08:53:41.814Z,8.57
2018-10-11T08:56:13.207Z,8.17
2018-10-11T08:58:44.650Z,8.23
2018-10-11T09:01:17.778Z,7.90
2018-10-11T09:03:50.516Z,8.23
2018-10-11T09:06:21.735Z,8.17
2018-10-11T09:08:52.986Z,8.00
2018-10-11T09:11:24.461Z,8.07
2018-10-11T09:14:00.846Z,7.87
2018-10-11T09:16:32.389Z,8.20
2018-10-11T09:19:03.732Z,8.20
2018-10-11T09:21:35.203Z,8.50
2018-10-11T09:24:06.775Z,8.33
2018-10-11T09:26:38.198Z,8.70
2018-10-11T09:29:09.681Z,7.93
2018-10-11T09:31:41.210Z,8.20
2018-10-11T09:34:12.598Z,8.60
2018-10-11T09:36:43.915Z,8.27
2018-10-11T09:39:15.387Z,7.90
2018-10-11T09:41:46.734Z,8.47
2018-10-11T09:44:18.343Z,8.00
2018-10-11T09:46:49.737Z,7.77
2018-10-11T09:49:21.205Z,8.30
2018-10-11T09:51:52.690Z,7.73
2018-10-11T09:54:24.038Z,7.60
2018-10-11T09:57:28.914Z,8.23
2018-10-11T10:00:01.219Z,8.07
2018-10-11T10:02:32.754Z,8.00
2018-10-11T10:05:04.653Z,7.30
2018-10-11T10:07:35.677Z,7.70
2018-10-11T10:10:07.686Z,7.93
2018-10-11T10:12:39.079Z,8.03
2018-10-11T10:15:10.700Z,7.70
2018-10-11T10:17:41.993Z,7.87
2018-10-11T10:22:43.848Z,7.67
2018-10-11T10:25:14.800Z,7.93
2018-10-11T10:27:45.819Z,7.70
2018-10-11T10:30:22.382Z,7.50
2018-10-11T10:32:53.768Z,7.47
2018-10-11T10:35:25.318Z,7.40
2018-10-11T10:37:56.690Z,7.30
2018-10-11T10:40:27.995Z,7.40
2018-10-11T10:45:29.867Z,7.50
2018-10-11T10:48:01.611Z,7.90
2018-10-11T10:50:32.871Z,7.40
2018-10-11T10:53:04.338Z,7.13
2018-10-11T10:55:35.738Z,7.33
2018-10-11T10:58:07.242Z,7.77
2018-10-11T11:00:38.330Z,7.37
2018-10-11T11:03:10.663Z,6.87
2018-10-11T11:05:41.993Z,7.33
2018-10-11T11:08:13.618Z,7.20
2018-10-11T11:10:44.998Z,7.63
2018-10-11T11:13:17.674Z,7.40
2018-10-11T11:15:50.317Z,7.60
2018-10-11T11:18:21.710Z,7.40
2018-10-11T11:20:54.599Z,7.50
2018-10-11T11:23:26.051Z,7.23
2018-10-11T11:25:57.632Z,7.53
2018-10-11T11:28:28.966Z,7.00
2018-10-11T11:33:30.875Z,7.07
2018-10-11T11:36:02.517Z,7.20
2018-10-11T11:38:33.895Z,7.87
2018-10-11T11:41:05.326Z,7.10
2018-10-11T11:43:36.748Z,7.23
2018-10-11T11:46:08.355Z,7.40
2018-10-11T11:48:39.757Z,7.27
2018-10-11T11:51:12.601Z,7.23
2018-10-11T11:53:44.713Z,7.57
2018-10-11T11:56:16.299Z,6.93
2018-10-11T11:58:47.826Z,7.40
2018-10-11T12:01:19.842Z,7.30
2018-10-11T12:03:51.497Z,7.40
2018-10-11T12:06:22.881Z,7.43
2018-10-11T12:08:54.402Z,6.97
2018-10-11T12:11:25.977Z,7.30
2018-10-11T12:16:27.845Z,7.17
2018-10-11T12:18:59.335Z,7.13
2018-10-11T12:21:30.725Z,7.00
2018-10-11T12:24:02.210Z,7.13
2018-10-11T12:26:33.756Z,7.43
2018-10-11T12:29:05.508Z,7.40
2018-10-11T12:31:37.709Z,6.90
2018-10-11T12:34:09.218Z,7.60
2018-10-11T12:36:40.653Z,7.03
2018-10-11T12:39:13.253Z,7.30
2018-10-11T12:41:44.781Z,7.23
2018-10-11T12:44:15.928Z,7.10
2018-10-11T12:49:17.866Z,7.37
2018-10-11T12:51:49.560Z,7.77
2018-10-11T12:54:20.759Z,7.33
2018-10-11T12:56:52.377Z,7.43
2018-10-11T12:59:23.722Z,6.70
2018-10-11T13:01:54.905Z,7.47
2018-10-11T13:04:26.766Z,7.27
2018-10-11T13:06:58.278Z,7.43
2018-10-11T13:09:29.970Z,7.53
2018-10-11T13:14:31.904Z,6.80
2018-10-11T13:17:03.506Z,7.60
2018-10-11T13:19:36.213Z,7.03
2018-10-11T13:22:07.700Z,6.93
2018-10-11T13:24:44.763Z,7.50
2018-10-11T13:27:11.820Z,7.30
2018-10-11T13:29:43.220Z,6.70
2018-10-11T13:32:14.707Z,7.13
2018-10-11T13:34:46.237Z,6.97
2018-10-11T13:37:18.510Z,7.17
2018-10-11T13:39:54.793Z,7.10
2018-10-11T13:42:21.386Z,7.17
2018-10-11T13:44:52.564Z,7.40
2018-10-11T13:47:23.618Z,6.80
2018-10-11T13:49:54.684Z,7.60
2018-10-11T13:52:25.627Z,7.50
2018-10-11T13:54:56.664Z,6.90
2018-10-11T13:57:30.496Z,7.40
2018-10-11T13:59:58.584Z,6.70
2018-10-11T14:02:29.612Z,7.23
2018-10-11T14:05:00.620Z,6.73
2018-10-11T14:07:31.589Z,7.20
2018-10-11T14:10:02.599Z,6.97
2018-10-11T14:12:33.598Z,6.93
2018-10-11T14:15:04.653Z,7.27
2018-10-11T14:17:35.691Z,6.70
2018-10-11T14:20:06.635Z,6.90
2018-10-11T14:22:37.554Z,6.80
2018-10-11T14:25:09.465Z,6.73
2018-10-11T14:27:40.583Z,7.07
2018-10-11T14:30:11.808Z,7.07
2018-10-11T14:32:43.310Z,7.10
2018-10-11T14:35:14.669Z,7.17
2018-10-11T14:37:45.905Z,6.50
2018-10-11T14:40:17.336Z,6.90
2018-10-11T14:42:48.891Z,6.90
2018-10-11T14:45:20.333Z,6.70
2018-10-11T14:47:51.633Z,7.53
2018-10-11T14:50:22.829Z,7.10
2018-10-11T14:52:54.196Z,6.93
2018-10-11T14:55:25.650Z,6.73
2018-10-11T14:57:56.896Z,6.73
2018-10-11T15:00:28.333Z,7.13
2018-10-11T15:03:00.611Z,6.73
2018-10-11T15:05:31.867Z,7.17
2018-10-11T15:08:03.189Z,6.97
2018-10-11T15:10:34.692Z,7.00
2018-10-11T15:13:05.793Z,6.87
2018-10-11T15:15:36.978Z,6.60
2018-10-11T15:20:40.190Z,6.47
2018-10-11T15:23:11.665Z,6.87
2018-10-11T15:25:42.880Z,7.30
2018-10-11T15:28:14.337Z,6.40
2018-10-11T15:30:45.722Z,6.63
2018-10-11T15:33:17.185Z,6.67
2018-10-11T15:35:48.605Z,6.70
2018-10-11T15:38:19.846Z,6.80
2018-10-11T15:40:51.259Z,6.67
2018-10-11T15:43:22.632Z,6.77
2018-10-11T15:45:54.598Z,6.40
2018-10-11T15:48:25.737Z,6.63
2018-10-11T15:50:57.071Z,6.67
2018-10-11T15:53:28.501Z,6.63
2018-10-11T15:55:59.780Z,6.60
2018-10-11T15:58:32.405Z,6.53
2018-10-11T16:01:03.845Z,6.70
2018-10-11T16:03:35.339Z,6.70
2018-10-11T16:06:06.721Z,7.07
2018-10-11T16:08:38.012Z,6.63
2018-10-11T16:11:09.612Z,6.80
2018-10-11T16:13:40.809Z,6.20
2018-10-11T16:16:12.317Z,7.00
2018-10-11T16:18:43.983Z,6.40
2018-10-11T16:23:45.976Z,6.30
2018-10-11T16:28:47.824Z,6.93
2018-10-11T16:31:19.340Z,6.90
2018-10-11T16:33:50.718Z,6.83
2018-10-11T16:36:21.976Z,6.80
2018-10-11T16:38:53.316Z,6.60
2018-10-11T16:41:25.184Z,6.57
2018-10-11T16:43:56.485Z,7.00
2018-10-11T16:46:27.717Z,6.27
2018-10-11T16:48:58.897Z,6.60
2018-10-11T16:51:30.320Z,6.50
2018-10-11T16:54:01.697Z,6.57
2018-10-11T16:56:32.869Z,6.97
2018-10-11T16:59:04.310Z,6.57
2018-10-11T17:01:35.644Z,6.60
2018-10-11T17:04:06.821Z,6.50
2018-10-11T17:06:37.984Z,6.80
2018-10-11T17:11:42.294Z,6.83
2018-10-11T17:14:13.616Z,6.77
2018-10-11T17:16:44.832Z,6.30
2018-10-11T17:19:16.305Z,6.77
2018-10-11T17:21:47.767Z,6.80
2018-10-11T17:24:18.958Z,6.57
2018-10-11T17:26:50.490Z,6.60
2018-10-11T17:29:21.745Z,6.60
2018-10-11T17:31:53.183Z,7.07
2018-10-11T17:34:24.712Z,6.80
2018-10-11T17:36:56.195Z,6.70
2018-10-11T17:39:28.422Z,6.27
2018-10-11T17:41:59.780Z,6.40
2018-10-11T17:44:31.304Z,6.50
2018-10-11T17:47:02.672Z,6.90
2018-10-11T17:49:33.861Z,6.60
2018-10-11T17:52:05.296Z,6.67
2018-10-11T17:54:36.668Z,6.30
2018-10-11T17:57:08.172Z,6.30
2018-10-11T17:59:39.632Z,6.53
2018-10-11T18:02:10.896Z,6.43
2018-10-11T18:04:42.256Z,6.50
2018-10-11T18:07:13.681Z,6.43
2018-10-11T18:09:44.986Z,6.10
2018-10-11T18:12:16.320Z,6.70
2018-10-11T18:14:47.751Z,6.70
2018-10-11T18:17:19.278Z,6.03
2018-10-11T18:19:50.748Z,6.50
2018-10-11T18:22:22.306Z,6.67
2018-10-11T18:24:53.640Z,6.30
2018-10-11T18:27:24.820Z,6.50
2018-10-11T18:29:56.376Z,6.50
2018-10-11T18:32:27.903Z,6.20
2018-10-11T18:34:59.304Z,6.10
2018-10-11T18:37:30.725Z,6.40
2018-10-11T18:40:02.200Z,6.47
2018-10-11T18:42:33.611Z,6.20
2018-10-11T18:45:06.301Z,6.00
2018-10-11T18:47:37.742Z,6.97
2018-10-11T18:50:09.298Z,6.13
2018-10-11T18:52:40.750Z,6.40
2018-10-11T18:55:13.184Z,6.17
2018-10-11T18:57:44.755Z,6.50
2018-10-11T19:00:16.280Z,6.30
2018-10-11T19:02:47.679Z,5.90
2018-10-11T19:05:19.182Z,6.67
2018-10-11T19:07:50.689Z,6.73
2018-10-11T19:10:22.191Z,6.00
2018-10-11T19:12:53.607Z,6.47
2018-10-11T19:15:24.757Z,6.90
2018-10-11T19:17:56.192Z,6.13
2018-10-11T19:20:27.630Z,6.00
2018-10-11T19:22:58.852Z,6.30
2018-10-11T19:25:30.024Z,6.70
2018-10-11T19:28:01.630Z,7.37
2018-10-11T19:30:33.189Z,8.10
2018-10-11T19:33:04.617Z,9.33
2018-10-11T19:35:35.857Z,9.00
2018-10-11T19:38:07.248Z,8.77
2018-10-11T19:40:38.565Z,8.70
2018-10-11T19:43:09.775Z,8.47
2018-10-11T19:45:41.278Z,8.30
2018-10-11T19:48:12.485Z,8.90
2018-10-11T19:50:43.595Z,8.70
2018-10-11T19:53:14.617Z,8.90
2018-10-11T19:55:45.629Z,8.83
2018-10-11T19:58:16.766Z,8.27
2018-10-11T20:00:48.186Z,8.00
2018-10-11T20:03:19.599Z,8.20
2018-10-11T20:05:50.791Z,8.53
2018-10-11T20:08:21.997Z,8.30
2018-10-11T20:10:53.475Z,7.97
2018-10-11T20:13:24.721Z,7.87
2018-10-11T20:15:55.887Z,8.00
2018-10-11T20:18:27.291Z,7.90
2018-10-11T20:20:58.743Z,7.97
2018-10-11T20:23:30.188Z,8.43
2018-10-11T20:26:01.653Z,7.90
2018-10-11T20:28:32.894Z,8.03
2018-10-11T20:31:04.196Z,8.10
2018-10-11T20:33:36.302Z,8.40
2018-10-11T20:36:07.597Z,7.90
2018-10-11T20:38:38.746Z,7.90
2018-10-11T20:41:10.330Z,7.37
2018-10-11T20:43:41.682Z,7.70
2018-10-11T20:46:12.748Z,8.03
2018-10-11T20:48:43.867Z,7.77
2018-10-11T20:51:14.991Z,8.13
2018-10-11T20:53:46.364Z,7.70
2018-10-11T20:56:17.689Z,8.30
2018-10-11T20:58:48.874Z,8.33
2018-10-11T21:01:20.186Z,8.30
2018-10-11T21:03:51.564Z,8.33
2018-10-11T21:06:22.735Z,8.07
2018-10-11T21:08:53.863Z,8.17
2018-10-11T21:11:25.186Z,8.50
2018-10-11T21:13:56.488Z,7.73
2018-10-11T21:16:27.699Z,8.33
2018-10-11T21:18:58.879Z,8.57
2018-10-11T21:21:30.356Z,7.70
2018-10-11T21:24:01.670Z,8.90
2018-10-11T21:26:32.749Z,8.47
2018-10-11T21:29:03.870Z,8.63
2018-10-11T21:31:35.200Z,8.10
2018-10-11T21:34:06.618Z,8.27
2018-10-11T21:36:37.715Z,8.10
2018-10-11T21:39:12.719Z,8.33
2018-10-11T21:41:43.855Z,8.77
2018-10-11T21:44:14.964Z,7.90
2018-10-11T21:49:16.767Z,8.03
2018-10-11T21:51:48.196Z,8.00
2018-10-11T21:54:19.616Z,8.13
2018-10-11T21:56:50.792Z,8.47
2018-10-11T21:59:21.964Z,8.77
2018-10-11T22:04:23.711Z,8.30
2018-10-11T22:06:55.006Z,8.53
2018-10-11T22:09:26.331Z,8.20
2018-10-11T22:11:57.714Z,8.43
2018-10-11T22:14:29.225Z,8.10
2018-10-11T22:17:00.474Z,8.37
2018-10-11T22:19:32.744Z,7.80
2018-10-11T22:22:03.870Z,8.17
2018-10-11T22:24:34.895Z,9.03
2018-10-11T22:27:06.194Z,8.63
2018-10-11T22:29:37.587Z,8.10
2018-10-11T22:32:08.711Z,8.57
2018-10-11T22:34:39.868Z,8.67
2018-10-11T22:37:11.207Z,8.10
2018-10-11T22:39:42.608Z,9.00
2018-10-11T22:42:14.295Z,8.63
2018-10-11T22:44:45.599Z,8.40
2018-10-11T22:47:16.831Z,8.50
2018-10-11T22:49:47.994Z,9.00
2018-10-11T22:52:22.570Z,8.47
2018-10-11T22:54:53.701Z,9.40
2018-10-11T22:57:24.877Z,8.93
2018-10-11T22:59:56.878Z,8.77
2018-10-11T23:02:28.195Z,8.27
2018-10-11T23:04:59.514Z,8.27
2018-10-11T23:07:30.722Z,8.63
2018-10-11T23:10:01.868Z,8.37
2018-10-11T23:12:33.194Z,8.50
2018-10-11T23:15:04.558Z,8.33
2018-10-11T23:20:14.830Z,8.75
2018-10-11T23:22:45.777Z,8.97
2018-10-11T23:25:16.789Z,7.90
2018-10-11T23:27:48.205Z,8.70
2018-10-11T23:30:19.621Z,8.20
2018-10-11T23:32:51.189Z,8.37
2018-10-11T23:35:22.647Z,8.67
2018-10-11T23:37:54.192Z,8.93
2018-10-11T23:40:25.645Z,9.20
2018-10-11T23:42:56.863Z,10.03
2018-10-11T23:45:28.268Z,9.07
2018-10-11T23:47:59.654Z,9.23
2018-10-11T23:50:30.883Z,8.93
2018-10-11T23:53:02.356Z,9.13
2018-10-11T23:55:34.196Z,8.93
2018-10-11T23:58:05.638Z,8.97
